createdAt,value
2023-02-07T00:01:14.879Z,72.42
2023-02-07T00:04:39.255Z,72.21
2023-02-07T00:08:00.107Z,72.05
2023-02-07T00:11:37.114Z,72.40
2023-02-07T00:14:57.768Z,71.87
2023-02-07T00:18:18.480Z,71.32
2023-02-07T00:21:39.452Z,72.02
2023-02-07T00:25:09.603Z,73.25
2023-02-07T00:28:33.130Z,71.90
2023-02-07T00:31:56.974Z,74.29
2023-02-07T00:35:19.197Z,75.88
2023-02-07T00:38:40.165Z,75.76
2023-02-07T00:42:08.081Z,76.94
2023-02-07T00:45:40.586Z,77.63
2023-02-07T00:49:07.494Z,78.04
2023-02-07T00:52:28.181Z,78.24
2023-02-07T00:55:48.880Z,77.74
2023-02-07T00:59:10.440Z,77.36
2023-02-07T01:02:33.774Z,77.50
2023-02-07T01:05:54.690Z,76.37
2023-02-07T01:09:29.177Z,76.12
2023-02-07T01:12:55.685Z,76.75
2023-02-07T01:16:28.397Z,77.26
2023-02-07T01:19:52.078Z,77.74
2023-02-07T01:23:15.622Z,78.45
2023-02-07T01:26:45.646Z,78.07
2023-02-07T01:30:11.881Z,77.32
2023-02-07T01:33:32.655Z,77.68
2023-02-07T01:36:56.139Z,75.70
2023-02-07T01:40:17.283Z,73.96
2023-02-07T01:43:39.240Z,73.64
2023-02-07T01:47:00.758Z,75.05
2023-02-07T01:50:32.104Z,73.23
2023-02-07T01:54:15.481Z,72.14
2023-02-07T01:57:36.590Z,71.90
2023-02-07T02:00:58.440Z,71.34
2023-02-07T02:04:19.088Z,71.26
2023-02-07T02:07:42.964Z,71.02
2023-02-07T02:11:47.891Z,71.25
2023-02-07T02:15:38.125Z,72.19
2023-02-07T02:19:44.476Z,72.04
2023-02-07T02:23:39.608Z,71.91
2023-02-07T02:27:18.922Z,71.62
2023-02-07T02:31:16.712Z,72.10
2023-02-07T02:34:58.217Z,72.67
2023-02-07T02:38:33.958Z,73.37
2023-02-07T02:42:10.485Z,73.37
2023-02-07T02:45:42.270Z,73.38
2023-02-07T02:49:20.945Z,72.94
2023-02-07T02:52:50.659Z,73.23
2023-02-07T02:56:32.500Z,73.32
2023-02-07T03:00:06.781Z,73.63
2023-02-07T03:04:24.436Z,73.45
2023-02-07T03:07:58.151Z,73.98
2023-02-07T03:11:17.232Z,73.90
2023-02-07T03:14:37.278Z,73.76
2023-02-07T03:17:57.512Z,72.81
2023-02-07T03:21:14.489Z,72.38
2023-02-07T03:24:32.578Z,72.43
2023-02-07T03:27:43.503Z,72.47
2023-02-07T03:30:57.781Z,72.37
2023-02-07T03:34:14.520Z,72.25
2023-02-07T03:37:30.908Z,72.41
2023-02-07T03:40:47.845Z,72.67
2023-02-07T03:43:57.305Z,72.67
2023-02-07T03:47:03.449Z,72.63
2023-02-07T03:50:11.004Z,72.37
2023-02-07T03:53:17.164Z,72.44
2023-02-07T03:56:26.554Z,72.65
2023-02-07T03:59:34.312Z,72.42
2023-02-07T04:02:41.042Z,73.10
2023-02-07T04:05:49.800Z,73.18
2023-02-07T04:08:56.803Z,73.52
2023-02-07T04:12:07.875Z,73.56
2023-02-07T04:15:16.313Z,73.33
2023-02-07T04:18:22.420Z,73.21
2023-02-07T04:21:32.405Z,73.10
2023-02-07T04:24:38.285Z,72.92
2023-02-07T04:27:47.837Z,72.86
2023-02-07T04:30:54.594Z,72.87
2023-02-07T04:34:04.927Z,72.77
2023-02-07T04:37:11.867Z,72.85
2023-02-07T04:40:19.263Z,72.70
2023-02-07T04:43:28.189Z,72.44
2023-02-07T04:46:41.548Z,72.18
2023-02-07T04:49:47.567Z,71.84
2023-02-07T04:52:57.797Z,71.99
2023-02-07T04:56:06.326Z,72.33
2023-02-07T04:59:15.680Z,72.44
2023-02-07T05:02:21.521Z,72.40
2023-02-07T05:05:28.746Z,72.73
2023-02-07T05:08:34.762Z,73.03
2023-02-07T05:11:41.452Z,73.08
2023-02-07T05:14:50.009Z,73.01
2023-02-07T05:17:57.280Z,72.82
2023-02-07T05:21:07.836Z,72.65
2023-02-07T05:24:14.800Z,72.88
2023-02-07T05:27:20.699Z,73.12
2023-02-07T05:30:30.506Z,73.23
2023-02-07T05:33:36.191Z,73.89
2023-02-07T05:36:43.528Z,75.72
2023-02-07T05:39:49.556Z,74.68
2023-02-07T05:42:57.338Z,74.37
2023-02-07T05:46:06.167Z,75.22
2023-02-07T05:49:16.573Z,76.54
2023-02-07T05:52:22.558Z,78.12
2023-02-07T05:55:29.557Z,77.76
2023-02-07T05:58:35.541Z,78.18
2023-02-07T06:01:43.803Z,78.34
2023-02-07T06:05:04.802Z,78.08
2023-02-07T06:08:25.616Z,78.38
2023-02-07T06:11:33.184Z,78.51
2023-02-07T06:14:39.569Z,79.50
2023-02-07T06:17:49.004Z,79.26
2023-02-07T06:20:55.419Z,79.44
2023-02-07T06:24:02.243Z,79.91
2023-02-07T06:27:12.693Z,79.88
2023-02-07T06:30:19.605Z,78.99
2023-02-07T06:33:28.285Z,78.02
2023-02-07T06:36:35.246Z,77.99
2023-02-07T06:39:41.373Z,77.66
2023-02-07T06:42:53.212Z,77.38
2023-02-07T06:45:59.890Z,77.09
2023-02-07T06:49:11.512Z,76.61
2023-02-07T06:52:17.799Z,76.14
2023-02-07T06:55:24.790Z,76.04
2023-02-07T06:58:37.080Z,74.94
2023-02-07T07:01:44.608Z,74.69
2023-02-07T07:04:53.363Z,74.15
2023-02-07T07:08:01.994Z,74.49
2023-02-07T07:11:08.415Z,74.72
2023-02-07T07:14:16.179Z,74.78
2023-02-07T07:17:22.191Z,74.14
2023-02-07T07:20:38.764Z,74.72
2023-02-07T07:23:44.908Z,73.74
2023-02-07T07:26:54.481Z,73.47
2023-02-07T07:30:00.562Z,73.67
2023-02-07T07:33:10.742Z,72.97
2023-02-07T07:36:19.404Z,73.41
2023-02-07T07:39:26.640Z,73.46
2023-02-07T07:42:32.659Z,72.79
2023-02-07T07:45:59.796Z,73.16
2023-02-07T07:49:05.820Z,72.61
2023-02-07T07:52:15.246Z,72.59
2023-02-07T07:55:21.595Z,71.71
2023-02-07T07:58:30.809Z,71.37
2023-02-07T08:01:36.933Z,71.58
2023-02-07T08:04:43.747Z,70.81
2023-02-07T08:07:52.407Z,70.33
2023-02-07T08:11:05.478Z,70.28
2023-02-07T08:14:11.422Z,70.89
2023-02-07T08:17:23.270Z,72.57
2023-02-07T08:20:36.158Z,73.05
2023-02-07T08:23:45.954Z,74.02
2023-02-07T08:26:51.980Z,75.06
2023-02-07T08:29:58.911Z,74.52
2023-02-07T08:33:05.031Z,75.32
2023-02-07T08:36:12.281Z,75.05
2023-02-07T08:39:27.085Z,75.32
2023-02-07T08:42:36.613Z,75.05
2023-02-07T08:45:42.794Z,75.52
2023-02-07T08:48:50.094Z,75.40
2023-02-07T08:51:56.807Z,74.29
2023-02-07T08:55:08.294Z,73.10
2023-02-07T08:58:14.400Z,72.96
2023-02-07T09:01:23.669Z,71.75
2023-02-07T09:04:29.926Z,71.50
2023-02-07T09:07:36.666Z,72.41
2023-02-07T09:10:47.490Z,71.73
2023-02-07T09:13:54.414Z,71.14
2023-02-07T09:17:03.868Z,70.97
2023-02-07T09:20:11.860Z,70.25
2023-02-07T09:23:20.907Z,69.81
2023-02-07T09:26:32.449Z,68.81
2023-02-07T09:29:38.716Z,69.03
2023-02-07T09:32:46.107Z,68.12
2023-02-07T09:35:54.859Z,67.87
2023-02-07T09:39:03.784Z,67.53
2023-02-07T09:42:34.955Z,68.33
2023-02-07T09:45:51.678Z,69.27
2023-02-07T09:49:13.397Z,67.51
2023-02-07T09:52:32.193Z,67.50
2023-02-07T09:55:52.912Z,67.00
2023-02-07T09:59:25.174Z,67.86
2023-02-07T10:02:47.720Z,68.54
2023-02-07T10:06:17.459Z,68.04
2023-02-07T10:09:43.442Z,67.64
2023-02-07T10:13:41.708Z,67.59
2023-02-07T10:17:31.609Z,67.87
2023-02-07T10:20:49.254Z,67.77
2023-02-07T10:24:27.729Z,67.65
2023-02-07T10:27:48.892Z,67.29
2023-02-07T10:31:05.356Z,66.66
2023-02-07T10:34:24.622Z,66.55
2023-02-07T10:37:40.476Z,67.59
2023-02-07T10:41:03.484Z,68.00
2023-02-07T10:44:16.717Z,66.70
2023-02-07T10:47:26.402Z,65.94
2023-02-07T10:50:35.354Z,65.95
2023-02-07T10:54:04.691Z,66.78
2023-02-07T10:57:23.734Z,66.90
2023-02-07T11:00:38.517Z,65.95
2023-02-07T11:03:44.818Z,64.72
2023-02-07T11:07:04.596Z,64.93
2023-02-07T11:10:21.590Z,64.29
2023-02-07T11:13:32.799Z,65.43
2023-02-07T11:16:39.331Z,66.09
2023-02-07T11:19:49.177Z,66.72
2023-02-07T11:23:00.179Z,67.05
2023-02-07T11:26:08.740Z,67.54
2023-02-07T11:29:22.267Z,68.24
2023-02-07T11:32:31.740Z,68.08
2023-02-07T11:35:40.099Z,68.22
2023-02-07T11:38:53.974Z,68.24
2023-02-07T11:42:04.771Z,68.43
2023-02-07T11:45:18.572Z,67.98
2023-02-07T11:48:31.574Z,69.34
2023-02-07T11:51:40.099Z,68.84
2023-02-07T11:54:57.831Z,68.43
2023-02-07T11:58:17.996Z,67.86
2023-02-07T12:01:32.809Z,68.08
2023-02-07T12:04:42.471Z,68.70
2023-02-07T12:07:55.385Z,69.06
2023-02-07T12:11:15.554Z,69.54
2023-02-07T12:14:35.975Z,70.27
2023-02-07T12:17:59.755Z,70.18
2023-02-07T12:21:21.145Z,70.21
2023-02-07T12:24:37.118Z,70.79
2023-02-07T12:27:53.397Z,70.84
2023-02-07T12:31:17.963Z,70.95
2023-02-07T12:34:36.909Z,71.67
2023-02-07T12:37:55.673Z,71.49
2023-02-07T12:41:15.682Z,71.58
2023-02-07T12:44:37.690Z,71.69
2023-02-07T12:48:07.029Z,71.86
2023-02-07T12:51:33.605Z,71.25
2023-02-07T12:54:58.500Z,71.12
2023-02-07T12:58:31.887Z,71.60
2023-02-07T13:01:52.820Z,71.53
2023-02-07T13:05:46.905Z,71.57
2023-02-07T13:09:10.914Z,71.75
2023-02-07T13:12:28.134Z,72.08
2023-02-07T13:15:50.173Z,72.23
2023-02-07T13:19:14.714Z,72.39
2023-02-07T13:22:40.093Z,71.98
2023-02-07T13:25:53.436Z,70.96
2023-02-07T13:29:04.369Z,71.07
2023-02-07T13:32:21.829Z,70.77
2023-02-07T13:35:38.349Z,71.18
2023-02-07T13:39:11.509Z,70.81
2023-02-07T13:42:36.404Z,71.36
2023-02-07T13:45:59.266Z,71.20
2023-02-07T13:49:22.523Z,70.90
2023-02-07T13:52:46.100Z,71.08
2023-02-07T13:55:53.810Z,70.18
2023-02-07T13:59:12.976Z,70.92
2023-02-07T14:02:24.775Z,70.19
2023-02-07T14:05:37.572Z,70.57
2023-02-07T14:08:48.221Z,70.26
2023-02-07T14:12:04.793Z,70.18
2023-02-07T14:16:02.050Z,69.89
2023-02-07T14:19:14.243Z,70.36
2023-02-07T14:22:24.875Z,70.43
2023-02-07T14:25:46.949Z,70.87
2023-02-07T14:28:52.961Z,70.99
2023-02-07T14:32:04.119Z,71.28
2023-02-07T14:35:40.831Z,71.42
2023-02-07T14:39:07.132Z,71.68
2023-02-07T14:42:24.941Z,72.01
2023-02-07T14:45:36.340Z,71.52
2023-02-07T14:48:54.291Z,71.67
2023-02-07T14:52:10.682Z,71.33
2023-02-07T14:55:27.575Z,71.30
2023-02-07T14:58:45.663Z,71.36
2023-02-07T15:01:51.681Z,71.35
2023-02-07T15:04:58.588Z,71.23
2023-02-07T15:08:22.091Z,71.31
2023-02-07T15:11:30.649Z,71.21
2023-02-07T15:14:39.713Z,71.50
2023-02-07T15:17:47.829Z,71.74
2023-02-07T15:20:59.490Z,71.54
2023-02-07T15:24:19.822Z,71.77
2023-02-07T15:27:28.831Z,72.35
2023-02-07T15:30:37.381Z,72.61
2023-02-07T15:33:53.777Z,72.26
2023-02-07T15:37:03.989Z,72.35
2023-02-07T15:40:20.486Z,72.42
2023-02-07T15:43:35.498Z,72.31
2023-02-07T15:46:54.489Z,71.93
2023-02-07T15:50:04.153Z,71.92
2023-02-07T15:53:11.960Z,72.17
2023-02-07T15:56:22.901Z,71.96
2023-02-07T15:59:34.670Z,72.07
2023-02-07T16:02:51.603Z,72.55
2023-02-07T16:06:10.285Z,73.03
2023-02-07T16:09:40.555Z,72.82
2023-02-07T16:12:53.356Z,73.29
2023-02-07T16:16:03.515Z,73.38
2023-02-07T16:19:20.457Z,74.06
2023-02-07T16:22:34.725Z,74.48
2023-02-07T16:25:41.228Z,74.48
2023-02-07T16:28:51.724Z,74.89
2023-02-07T16:31:59.315Z,75.08
2023-02-07T16:35:06.161Z,75.07
2023-02-07T16:38:12.155Z,74.88
2023-02-07T16:41:32.613Z,74.97
2023-02-07T16:44:41.258Z,74.93
2023-02-07T16:47:49.679Z,74.58
2023-02-07T16:50:55.708Z,75.10
2023-02-07T16:54:02.560Z,75.40
2023-02-07T16:57:08.927Z,75.31
2023-02-07T17:00:24.122Z,75.13
2023-02-07T17:03:30.192Z,74.54
2023-02-07T17:06:37.187Z,74.38
2023-02-07T17:09:43.312Z,74.90
2023-02-07T17:12:50.738Z,75.38
2023-02-07T17:15:59.776Z,74.99
2023-02-07T17:19:14.393Z,75.30
2023-02-07T17:22:20.397Z,75.65
2023-02-07T17:25:30.931Z,75.38
2023-02-07T17:28:37.578Z,74.61
2023-02-07T17:31:49.482Z,74.69
2023-02-07T17:34:55.741Z,74.38
2023-02-07T17:38:03.086Z,74.11
2023-02-07T17:41:10.026Z,73.96
2023-02-07T17:44:21.595Z,73.93
2023-02-07T17:47:30.126Z,74.08
2023-02-07T17:50:41.569Z,73.94
2023-02-07T17:53:47.657Z,73.88
2023-02-07T17:56:55.687Z,73.88
2023-02-07T18:00:01.849Z,74.78
2023-02-07T18:03:21.994Z,74.90
2023-02-07T18:06:31.398Z,74.49
2023-02-07T18:09:38.290Z,74.35
2023-02-07T18:12:44.406Z,74.15
2023-02-07T18:15:51.638Z,73.90
2023-02-07T18:19:01.017Z,73.83
2023-02-07T18:22:08.785Z,74.21
2023-02-07T18:25:15.555Z,73.94
2023-02-07T18:28:22.582Z,73.91
2023-02-07T18:31:28.876Z,73.53
2023-02-07T18:34:38.703Z,73.87
2023-02-07T18:37:45.177Z,73.86
2023-02-07T18:40:52.029Z,73.56
2023-02-07T18:43:58.014Z,73.53
2023-02-07T18:47:04.886Z,73.34
2023-02-07T18:50:15.923Z,73.07
2023-02-07T18:53:23.202Z,73.47
2023-02-07T18:56:30.148Z,73.42
2023-02-07T18:59:37.739Z,73.26
2023-02-07T19:02:43.902Z,73.06
2023-02-07T19:05:53.263Z,73.23
2023-02-07T19:09:00.411Z,73.10
2023-02-07T19:12:09.869Z,72.87
2023-02-07T19:15:16.911Z,72.83
2023-02-07T19:18:24.116Z,73.11
2023-02-07T19:21:33.272Z,73.47
2023-02-07T19:24:42.318Z,73.56
2023-02-07T19:27:48.465Z,73.11
2023-02-07T19:30:55.329Z,73.15
2023-02-07T19:34:03.187Z,72.83
2023-02-07T19:37:12.701Z,72.86
2023-02-07T19:40:18.938Z,73.13
2023-02-07T19:43:26.321Z,73.34
2023-02-07T19:46:33.005Z,73.07
2023-02-07T19:49:40.400Z,73.79
2023-02-07T19:52:49.081Z,73.52
2023-02-07T19:55:56.116Z,73.58
2023-02-07T19:59:04.345Z,73.84
2023-02-07T20:02:11.308Z,73.63
2023-02-07T20:05:17.424Z,73.58
2023-02-07T20:08:27.035Z,73.26
2023-02-07T20:11:34.070Z,72.93
2023-02-07T20:14:41.243Z,72.81
2023-02-07T20:17:51.181Z,72.72
2023-02-07T20:21:06.224Z,72.82
2023-02-07T20:24:21.858Z,72.65
2023-02-07T20:27:30.441Z,72.84
2023-02-07T20:30:38.326Z,72.73
2023-02-07T20:33:50.605Z,72.90
2023-02-07T20:36:59.000Z,72.76
2023-02-07T20:40:09.579Z,72.47
2023-02-07T20:43:15.709Z,72.33
2023-02-07T20:46:22.703Z,72.60
2023-02-07T20:49:37.215Z,72.77
2023-02-07T20:52:43.977Z,72.00
2023-02-07T20:55:52.617Z,72.13
2023-02-07T20:59:00.893Z,72.47
2023-02-07T21:02:09.915Z,72.83
2023-02-07T21:05:17.563Z,72.97
2023-02-07T21:08:25.248Z,73.04
2023-02-07T21:11:42.505Z,73.02
2023-02-07T21:14:52.607Z,73.11
2023-02-07T21:17:59.426Z,72.80
2023-02-07T21:21:14.178Z,73.07
2023-02-07T21:24:22.070Z,73.59
2023-02-07T21:27:30.723Z,73.36
2023-02-07T21:30:41.849Z,73.68
2023-02-07T21:33:49.868Z,73.36
2023-02-07T21:37:01.933Z,73.23
2023-02-07T21:40:09.917Z,72.84
2023-02-07T21:43:22.012Z,73.47
2023-02-07T21:46:33.086Z,73.33
2023-02-07T21:49:39.984Z,73.64
2023-02-07T21:52:46.006Z,73.62
2023-02-07T21:55:52.890Z,73.91
2023-02-07T21:59:05.229Z,73.68
2023-02-07T22:02:14.882Z,73.79
2023-02-07T22:05:21.255Z,73.34
2023-02-07T22:08:28.075Z,73.24
2023-02-07T22:11:37.820Z,73.66
2023-02-07T22:14:47.316Z,73.44
2023-02-07T22:17:53.240Z,73.23
2023-02-07T22:21:07.463Z,72.83
2023-02-07T22:24:18.490Z,73.05
2023-02-07T22:27:25.302Z,73.44
2023-02-07T22:30:33.899Z,73.26
2023-02-07T22:33:40.856Z,73.34
2023-02-07T22:36:48.923Z,73.30
2023-02-07T22:39:55.626Z,73.36
2023-02-07T22:43:01.507Z,73.68
2023-02-07T22:46:16.060Z,73.24
2023-02-07T22:49:22.213Z,73.03
2023-02-07T22:52:29.176Z,73.31
2023-02-07T22:55:36.621Z,73.83
2023-02-07T22:58:44.655Z,73.84
2023-02-07T23:01:53.405Z,73.98
2023-02-07T23:05:00.244Z,74.22
2023-02-07T23:08:06.319Z,73.84
2023-02-07T23:11:21.912Z,73.85
2023-02-07T23:14:27.856Z,73.55
2023-02-07T23:17:37.646Z,72.77
2023-02-07T23:20:47.576Z,72.99
2023-02-07T23:23:54.753Z,73.24
2023-02-07T23:27:00.622Z,73.54
2023-02-07T23:30:08.408Z,73.49
2023-02-07T23:33:16.932Z,74.03
2023-02-07T23:36:24.817Z,74.14
2023-02-07T23:39:30.829Z,74.09
2023-02-07T23:42:38.053Z,73.48
2023-02-07T23:45:44.143Z,73.67
2023-02-07T23:48:53.580Z,73.71
2023-02-07T23:51:59.483Z,74.66
2023-02-07T23:55:23.124Z,74.76
2023-02-07T23:58:31.233Z,74.83
